sensor_id;sensor_type;location;lat;lon;timestamp;pressure;altitude;pressure_sealevel;temperature
65823;BMP180;52585;47.566;19.056;2022-08-03T00:00:47;100506.80;;;23.30
65823;BMP180;52585;47.566;19.056;2022-08-03T00:03:13;100510.80;;;23.30
65823;BMP180;52585;47.566;19.056;2022-08-03T00:05:38;100510.40;;;23.30
65823;BMP180;52585;47.566;19.056;2022-08-03T00:08:04;100508.60;;;23.20
65823;BMP180;52585;47.566;19.056;2022-08-03T00:10:31;100502.80;;;23.20
65823;BMP180;52585;47.566;19.056;2022-08-03T00:12:57;100505.60;;;23.20
65823;BMP180;52585;47.566;19.056;2022-08-03T00:15:22;100504.20;;;23.20
65823;BMP180;52585;47.566;19.056;2022-08-03T00:17:48;100508.00;;;23.20
65823;BMP180;52585;47.566;19.056;2022-08-03T00:20:13;100503.40;;;23.14
65823;BMP180;52585;47.566;19.056;2022-08-03T00:22:39;100509.60;;;23.10
65823;BMP180;52585;47.566;19.056;2022-08-03T00:25:05;100507.60;;;23.10
65823;BMP180;52585;47.566;19.056;2022-08-03T00:27:31;100507.20;;;23.10
65823;BMP180;52585;47.566;19.056;2022-08-03T00:29:58;100511.00;;;23.06
65823;BMP180;52585;47.566;19.056;2022-08-03T00:32:24;100509.80;;;23.00
65823;BMP180;52585;47.566;19.056;2022-08-03T00:34:49;100511.20;;;23.00
65823;BMP180;52585;47.566;19.056;2022-08-03T00:37:15;100513.60;;;23.00
65823;BMP180;52585;47.566;19.056;2022-08-03T00:39:40;100512.80;;;23.00
65823;BMP180;52585;47.566;19.056;2022-08-03T00:42:07;100516.20;;;23.00
65823;BMP180;52585;47.566;19.056;2022-08-03T00:44:40;100516.20;;;22.90
65823;BMP180;52585;47.566;19.056;2022-08-03T00:47:06;100518.00;;;22.90
65823;BMP180;52585;47.566;19.056;2022-08-03T00:49:32;100514.60;;;22.90
65823;BMP180;52585;47.566;19.056;2022-08-03T00:51:59;100521.40;;;22.90
65823;BMP180;52585;47.566;19.056;2022-08-03T00:54:25;100519.60;;;22.90
65823;BMP180;52585;47.566;19.056;2022-08-03T00:56:51;100517.20;;;22.80
65823;BMP180;52585;47.566;19.056;2022-08-03T00:59:18;100519.40;;;22.80
65823;BMP180;52585;47.566;19.056;2022-08-03T01:01:44;100524.60;;;22.80
65823;BMP180;52585;47.566;19.056;2022-08-03T01:04:09;100521.20;;;22.80
65823;BMP180;52585;47.566;19.056;2022-08-03T01:06:48;100515.20;;;22.80
65823;BMP180;52585;47.566;19.056;2022-08-03T01:12:55;100517.80;;;22.78
65823;BMP180;52585;47.566;19.056;2022-08-03T01:18:07;100525.80;;;22.70
65823;BMP180;52585;47.566;19.056;2022-08-03T01:20:37;100524.80;;;22.70
65823;BMP180;52585;47.566;19.056;2022-08-03T01:31:46;100527.80;;;22.60
65823;BMP180;52585;47.566;19.056;2022-08-03T01:34:16;100528.00;;;22.60
65823;BMP180;52585;47.566;19.056;2022-08-03T01:36:55;100529.20;;;22.60
65823;BMP180;52585;47.566;19.056;2022-08-03T01:39:24;100531.20;;;22.60
65823;BMP180;52585;47.566;19.056;2022-08-03T01:42:01;100529.40;;;22.58
65823;BMP180;52585;47.566;19.056;2022-08-03T01:44:42;100531.00;;;22.50
65823;BMP180;52585;47.566;19.056;2022-08-03T01:47:11;100531.80;;;22.50
65823;BMP180;52585;47.566;19.056;2022-08-03T01:49:42;100533.60;;;22.50
65823;BMP180;52585;47.566;19.056;2022-08-03T01:52:11;100530.20;;;22.50
65823;BMP180;52585;47.566;19.056;2022-08-03T01:54:45;100522.80;;;22.40
65823;BMP180;52585;47.566;19.056;2022-08-03T01:57:14;100527.20;;;22.40
65823;BMP180;52585;47.566;19.056;2022-08-03T01:59:44;100522.40;;;22.40
65823;BMP180;52585;47.566;19.056;2022-08-03T02:02:15;100520.20;;;22.40
65823;BMP180;52585;47.566;19.056;2022-08-03T02:04:44;100518.20;;;22.40
65823;BMP180;52585;47.566;19.056;2022-08-03T02:07:14;100523.60;;;22.30
65823;BMP180;52585;47.566;19.056;2022-08-03T02:09:44;100523.40;;;22.30
65823;BMP180;52585;47.566;19.056;2022-08-03T02:12:13;100521.80;;;22.30
65823;BMP180;52585;47.566;19.056;2022-08-03T02:14:43;100519.60;;;22.30
65823;BMP180;52585;47.566;19.056;2022-08-03T02:17:13;100521.20;;;22.20
65823;BMP180;52585;47.566;19.056;2022-08-03T02:19:44;100520.20;;;22.20
65823;BMP180;52585;47.566;19.056;2022-08-03T02:22:14;100517.60;;;22.20
65823;BMP180;52585;47.566;19.056;2022-08-03T02:24:41;100518.20;;;22.20
65823;BMP180;52585;47.566;19.056;2022-08-03T02:27:21;100518.20;;;22.10
65823;BMP180;52585;47.566;19.056;2022-08-03T02:29:54;100519.40;;;22.10
65823;BMP180;52585;47.566;19.056;2022-08-03T02:32:33;100514.40;;;22.10
65823;BMP180;52585;47.566;19.056;2022-08-03T02:35:03;100516.40;;;22.10
65823;BMP180;52585;47.566;19.056;2022-08-03T02:37:36;100514.60;;;22.06
65823;BMP180;52585;47.566;19.056;2022-08-03T02:40:08;100522.80;;;22.04
65823;BMP180;52585;47.566;19.056;2022-08-03T02:42:38;100525.20;;;22.00
65823;BMP180;52585;47.566;19.056;2022-08-03T02:45:09;100520.60;;;22.00
65823;BMP180;52585;47.566;19.056;2022-08-03T02:47:42;100517.20;;;22.00
65823;BMP180;52585;47.566;19.056;2022-08-03T02:50:13;100519.80;;;22.00
65823;BMP180;52585;47.566;19.056;2022-08-03T02:52:44;100520.80;;;22.00
65823;BMP180;52585;47.566;19.056;2022-08-03T02:55:13;100521.40;;;22.00
65823;BMP180;52585;47.566;19.056;2022-08-03T02:57:42;100521.00;;;21.98
65823;BMP180;52585;47.566;19.056;2022-08-03T03:00:11;100526.40;;;21.90
65823;BMP180;52585;47.566;19.056;2022-08-03T03:02:40;100528.40;;;21.90
65823;BMP180;52585;47.566;19.056;2022-08-03T03:05:09;100524.40;;;21.90
65823;BMP180;52585;47.566;19.056;2022-08-03T03:07:37;100529.20;;;21.90
65823;BMP180;52585;47.566;19.056;2022-08-03T03:10:04;100527.00;;;21.88
65823;BMP180;52585;47.566;19.056;2022-08-03T03:12:32;100528.00;;;21.80
65823;BMP180;52585;47.566;19.056;2022-08-03T03:14:59;100527.80;;;21.80
65823;BMP180;52585;47.566;19.056;2022-08-03T03:17:26;100526.20;;;21.80
65823;BMP180;52585;47.566;19.056;2022-08-03T03:19:52;100525.20;;;21.80
65823;BMP180;52585;47.566;19.056;2022-08-03T03:22:22;100528.80;;;21.80
65823;BMP180;52585;47.566;19.056;2022-08-03T03:24:49;100529.00;;;21.80
65823;BMP180;52585;47.566;19.056;2022-08-03T03:27:17;100523.40;;;21.70
65823;BMP180;52585;47.566;19.056;2022-08-03T03:29:43;100523.60;;;21.70
65823;BMP180;52585;47.566;19.056;2022-08-03T03:32:09;100521.60;;;21.70
65823;BMP180;52585;47.566;19.056;2022-08-03T03:34:36;100524.40;;;21.70
65823;BMP180;52585;47.566;19.056;2022-08-03T03:37:02;100525.00;;;21.70
65823;BMP180;52585;47.566;19.056;2022-08-03T03:39:30;100528.40;;;21.70
65823;BMP180;52585;47.566;19.056;2022-08-03T03:41:56;100527.60;;;21.70
65823;BMP180;52585;47.566;19.056;2022-08-03T03:44:32;100527.00;;;21.68
65823;BMP180;52585;47.566;19.056;2022-08-03T03:46:57;100528.20;;;21.64
65823;BMP180;52585;47.566;19.056;2022-08-03T03:49:23;100528.80;;;21.60
65823;BMP180;52585;47.566;19.056;2022-08-03T03:51:53;100530.60;;;21.60
65823;BMP180;52585;47.566;19.056;2022-08-03T03:54:20;100525.80;;;21.60
65823;BMP180;52585;47.566;19.056;2022-08-03T03:56:46;100529.60;;;21.60
65823;BMP180;52585;47.566;19.056;2022-08-03T03:59:12;100533.00;;;21.60
65823;BMP180;52585;47.566;19.056;2022-08-03T04:01:38;100532.80;;;21.60
65823;BMP180;52585;47.566;19.056;2022-08-03T04:04:05;100527.40;;;21.60
65823;BMP180;52585;47.566;19.056;2022-08-03T04:06:49;100528.60;;;21.60
65823;BMP180;52585;47.566;19.056;2022-08-03T04:09:40;100531.80;;;21.60
65823;BMP180;52585;47.566;19.056;2022-08-03T04:12:27;100537.20;;;21.50
65823;BMP180;52585;47.566;19.056;2022-08-03T04:14:56;100542.80;;;21.50
65823;BMP180;52585;47.566;19.056;2022-08-03T04:17:27;100544.20;;;21.50
65823;BMP180;52585;47.566;19.056;2022-08-03T04:19:56;100546.40;;;21.50
65823;BMP180;52585;47.566;19.056;2022-08-03T04:22:26;100549.00;;;21.50
65823;BMP180;52585;47.566;19.056;2022-08-03T04:25:08;100553.40;;;21.36
65823;BMP180;52585;47.566;19.056;2022-08-03T04:27:40;100558.40;;;21.20
65823;BMP180;52585;47.566;19.056;2022-08-03T04:30:08;100555.40;;;21.10
65823;BMP180;52585;47.566;19.056;2022-08-03T04:32:37;100553.40;;;21.10
65823;BMP180;52585;47.566;19.056;2022-08-03T04:35:05;100555.20;;;21.00
65823;BMP180;52585;47.566;19.056;2022-08-03T04:37:49;100556.20;;;21.00
65823;BMP180;52585;47.566;19.056;2022-08-03T04:40:29;100557.40;;;21.00
65823;BMP180;52585;47.566;19.056;2022-08-03T04:42:57;100558.60;;;21.00
65823;BMP180;52585;47.566;19.056;2022-08-03T04:45:29;100560.20;;;21.10
65823;BMP180;52585;47.566;19.056;2022-08-03T04:47:56;100565.20;;;21.10
65823;BMP180;52585;47.566;19.056;2022-08-03T04:50:22;100562.80;;;21.10
65823;BMP180;52585;47.566;19.056;2022-08-03T04:52:49;100562.40;;;21.14
65823;BMP180;52585;47.566;19.056;2022-08-03T04:55:28;100565.40;;;21.20
65823;BMP180;52585;47.566;19.056;2022-08-03T04:57:56;100573.20;;;21.20
65823;BMP180;52585;47.566;19.056;2022-08-03T05:00:22;100577.80;;;21.28
65823;BMP180;52585;47.566;19.056;2022-08-03T05:02:47;100584.00;;;21.30
65823;BMP180;52585;47.566;19.056;2022-08-03T05:05:15;100583.80;;;21.38
65823;BMP180;52585;47.566;19.056;2022-08-03T05:07:41;100586.80;;;21.40
65823;BMP180;52585;47.566;19.056;2022-08-03T05:10:10;100586.20;;;21.50
65823;BMP180;52585;47.566;19.056;2022-08-03T05:12:37;100592.80;;;21.52
65823;BMP180;52585;47.566;19.056;2022-08-03T05:15:05;100589.60;;;21.60
65823;BMP180;52585;47.566;19.056;2022-08-03T05:17:31;100592.80;;;21.70
65823;BMP180;52585;47.566;19.056;2022-08-03T05:19:59;100592.20;;;21.70
65823;BMP180;52585;47.566;19.056;2022-08-03T05:22:25;100598.60;;;21.80
65823;BMP180;52585;47.566;19.056;2022-08-03T05:24:51;100600.40;;;21.80
65823;BMP180;52585;47.566;19.056;2022-08-03T05:27:17;100599.00;;;21.90
65823;BMP180;52585;47.566;19.056;2022-08-03T05:29:49;100598.80;;;21.90
65823;BMP180;52585;47.566;19.056;2022-08-03T05:32:16;100603.20;;;22.00
65823;BMP180;52585;47.566;19.056;2022-08-03T05:34:42;100606.60;;;22.00
65823;BMP180;52585;47.566;19.056;2022-08-03T05:37:09;100603.40;;;22.08
65823;BMP180;52585;47.566;19.056;2022-08-03T05:39:35;100609.60;;;22.10
65823;BMP180;52585;47.566;19.056;2022-08-03T05:42:01;100608.60;;;22.18
65823;BMP180;52585;47.566;19.056;2022-08-03T05:44:27;100618.00;;;22.20
65823;BMP180;52585;47.566;19.056;2022-08-03T05:46:53;100614.40;;;22.30
65823;BMP180;52585;47.566;19.056;2022-08-03T05:49:19;100619.80;;;22.30
65823;BMP180;52585;47.566;19.056;2022-08-03T05:51:45;100616.20;;;22.40
65823;BMP180;52585;47.566;19.056;2022-08-03T05:54:11;100617.80;;;22.40
65823;BMP180;52585;47.566;19.056;2022-08-03T05:56:36;100618.60;;;22.40
65823;BMP180;52585;47.566;19.056;2022-08-03T05:59:02;100624.00;;;22.50
65823;BMP180;52585;47.566;19.056;2022-08-03T06:01:28;100627.40;;;22.50
65823;BMP180;52585;47.566;19.056;2022-08-03T06:03:56;100624.40;;;22.50
65823;BMP180;52585;47.566;19.056;2022-08-03T06:06:22;100624.80;;;22.60
65823;BMP180;52585;47.566;19.056;2022-08-03T06:08:48;100626.60;;;22.60
65823;BMP180;52585;47.566;19.056;2022-08-03T06:11:13;100624.20;;;22.70
65823;BMP180;52585;47.566;19.056;2022-08-03T06:13:39;100629.20;;;22.70
65823;BMP180;52585;47.566;19.056;2022-08-03T06:16:06;100630.80;;;22.80
65823;BMP180;52585;47.566;19.056;2022-08-03T06:18:32;100631.80;;;22.80
65823;BMP180;52585;47.566;19.056;2022-08-03T06:20:57;100629.80;;;22.90
65823;BMP180;52585;47.566;19.056;2022-08-03T06:23:23;100626.20;;;22.96
65823;BMP180;52585;47.566;19.056;2022-08-03T06:25:49;100629.40;;;23.00
65823;BMP180;52585;47.566;19.056;2022-08-03T06:28:14;100625.20;;;23.10
65823;BMP180;52585;47.566;19.056;2022-08-03T06:30:40;100628.80;;;23.10
65823;BMP180;52585;47.566;19.056;2022-08-03T06:33:06;100633.20;;;23.18
65823;BMP180;52585;47.566;19.056;2022-08-03T06:35:32;100634.00;;;23.20
65823;BMP180;52585;47.566;19.056;2022-08-03T06:37:58;100639.40;;;23.28
65823;BMP180;52585;47.566;19.056;2022-08-03T06:40:24;100641.20;;;23.30
65823;BMP180;52585;47.566;19.056;2022-08-03T06:42:58;100637.40;;;23.34
65823;BMP180;52585;47.566;19.056;2022-08-03T06:45:25;100640.40;;;23.40
65823;BMP180;52585;47.566;19.056;2022-08-03T06:48:05;100637.20;;;23.40
65823;BMP180;52585;47.566;19.056;2022-08-03T06:50:34;100641.20;;;23.50
65823;BMP180;52585;47.566;19.056;2022-08-03T06:53:01;100639.40;;;23.50
65823;BMP180;52585;47.566;19.056;2022-08-03T06:55:27;100641.00;;;23.50
65823;BMP180;52585;47.566;19.056;2022-08-03T06:57:52;100638.80;;;23.60
65823;BMP180;52585;47.566;19.056;2022-08-03T07:00:19;100643.00;;;23.60
65823;BMP180;52585;47.566;19.056;2022-08-03T07:02:45;100640.40;;;23.70
65823;BMP180;52585;47.566;19.056;2022-08-03T07:05:11;100646.80;;;23.70
65823;BMP180;52585;47.566;19.056;2022-08-03T07:07:38;100646.40;;;23.70
65823;BMP180;52585;47.566;19.056;2022-08-03T07:10:06;100642.80;;;23.80
65823;BMP180;52585;47.566;19.056;2022-08-03T07:12:36;100638.40;;;23.80
65823;BMP180;52585;47.566;19.056;2022-08-03T07:15:04;100640.00;;;23.90
65823;BMP180;52585;47.566;19.056;2022-08-03T07:17:32;100640.20;;;23.90
65823;BMP180;52585;47.566;19.056;2022-08-03T07:20:01;100639.80;;;24.00
65823;BMP180;52585;47.566;19.056;2022-08-03T07:22:27;100640.00;;;24.10
65823;BMP180;52585;47.566;19.056;2022-08-03T07:24:54;100643.00;;;24.10
65823;BMP180;52585;47.566;19.056;2022-08-03T07:27:20;100641.80;;;24.20
65823;BMP180;52585;47.566;19.056;2022-08-03T07:29:45;100642.00;;;24.30
65823;BMP180;52585;47.566;19.056;2022-08-03T07:32:11;100642.20;;;24.30
65823;BMP180;52585;47.566;19.056;2022-08-03T07:34:36;100637.80;;;24.40
65823;BMP180;52585;47.566;19.056;2022-08-03T07:37:02;100640.20;;;24.50
65823;BMP180;52585;47.566;19.056;2022-08-03T07:39:27;100636.80;;;24.50
65823;BMP180;52585;47.566;19.056;2022-08-03T07:41:53;100640.40;;;24.60
65823;BMP180;52585;47.566;19.056;2022-08-03T07:44:20;100637.40;;;24.60
65823;BMP180;52585;47.566;19.056;2022-08-03T07:46:46;100638.60;;;24.70
65823;BMP180;52585;47.566;19.056;2022-08-03T07:49:12;100637.40;;;24.70
65823;BMP180;52585;47.566;19.056;2022-08-03T07:51:38;100637.80;;;24.80
65823;BMP180;52585;47.566;19.056;2022-08-03T07:54:04;100635.00;;;24.80
65823;BMP180;52585;47.566;19.056;2022-08-03T07:56:30;100629.80;;;24.90
65823;BMP180;52585;47.566;19.056;2022-08-03T07:58:56;100631.80;;;24.90
65823;BMP180;52585;47.566;19.056;2022-08-03T08:01:22;100627.80;;;25.00
65823;BMP180;52585;47.566;19.056;2022-08-03T08:03:48;100628.80;;;25.00
65823;BMP180;52585;47.566;19.056;2022-08-03T08:06:16;100629.00;;;25.10
65823;BMP180;52585;47.566;19.056;2022-08-03T08:08:42;100628.40;;;25.10
65823;BMP180;52585;47.566;19.056;2022-08-03T08:11:08;100628.60;;;25.20
65823;BMP180;52585;47.566;19.056;2022-08-03T08:13:34;100631.80;;;25.30
65823;BMP180;52585;47.566;19.056;2022-08-03T08:16:02;100629.40;;;25.30
65823;BMP180;52585;47.566;19.056;2022-08-03T08:18:28;100632.00;;;25.36
65823;BMP180;52585;47.566;19.056;2022-08-03T08:20:57;100629.00;;;25.40
65823;BMP180;52585;47.566;19.056;2022-08-03T08:23:25;100626.60;;;25.40
65823;BMP180;52585;47.566;19.056;2022-08-03T08:25:52;100627.60;;;25.50
65823;BMP180;52585;47.566;19.056;2022-08-03T08:28:20;100634.00;;;25.50
65823;BMP180;52585;47.566;19.056;2022-08-03T08:30:46;100632.60;;;25.60
65823;BMP180;52585;47.566;19.056;2022-08-03T08:33:12;100629.40;;;25.60
65823;BMP180;52585;47.566;19.056;2022-08-03T08:35:38;100628.60;;;25.64
65823;BMP180;52585;47.566;19.056;2022-08-03T08:38:04;100631.80;;;25.70
65823;BMP180;52585;47.566;19.056;2022-08-03T08:40:30;100633.00;;;25.70
65823;BMP180;52585;47.566;19.056;2022-08-03T08:42:55;100626.60;;;25.74
65823;BMP180;52585;47.566;19.056;2022-08-03T08:45:21;100628.60;;;25.80
65823;BMP180;52585;47.566;19.056;2022-08-03T08:47:50;100626.00;;;25.80
65823;BMP180;52585;47.566;19.056;2022-08-03T08:50:20;100628.80;;;25.84
65823;BMP180;52585;47.566;19.056;2022-08-03T08:52:49;100626.40;;;25.90
65823;BMP180;52585;47.566;19.056;2022-08-03T08:55:21;100623.60;;;25.90
65823;BMP180;52585;47.566;19.056;2022-08-03T08:57:52;100627.00;;;26.00
65823;BMP180;52585;47.566;19.056;2022-08-03T09:00:22;100624.20;;;26.00
65823;BMP180;52585;47.566;19.056;2022-08-03T09:02:48;100622.60;;;26.10
65823;BMP180;52585;47.566;19.056;2022-08-03T09:05:16;100618.00;;;26.10
65823;BMP180;52585;47.566;19.056;2022-08-03T09:07:45;100617.20;;;26.10
65823;BMP180;52585;47.566;19.056;2022-08-03T09:10:15;100615.40;;;26.14
65823;BMP180;52585;47.566;19.056;2022-08-03T09:12:47;100615.60;;;26.20
65823;BMP180;52585;47.566;19.056;2022-08-03T09:17:53;100615.40;;;26.30
65823;BMP180;52585;47.566;19.056;2022-08-03T09:20:22;100611.80;;;26.30
65823;BMP180;52585;47.566;19.056;2022-08-03T09:22:58;100614.00;;;26.40
65823;BMP180;52585;47.566;19.056;2022-08-03T09:30:42;100614.20;;;26.40
65823;BMP180;52585;47.566;19.056;2022-08-03T09:55:35;100605.00;;;26.90
65823;BMP180;52585;47.566;19.056;2022-08-03T09:58:05;100600.00;;;27.00
65823;BMP180;52585;47.566;19.056;2022-08-03T10:01:02;100598.20;;;27.00
65823;BMP180;52585;47.566;19.056;2022-08-03T10:03:34;100591.40;;;27.08
65823;BMP180;52585;47.566;19.056;2022-08-03T10:06:18;100591.20;;;27.10
65823;BMP180;52585;47.566;19.056;2022-08-03T10:08:45;100587.00;;;27.10
65823;BMP180;52585;47.566;19.056;2022-08-03T10:11:11;100583.40;;;27.18
65823;BMP180;52585;47.566;19.056;2022-08-03T10:13:37;100582.60;;;27.20
65823;BMP180;52585;47.566;19.056;2022-08-03T10:16:04;100583.80;;;27.20
65823;BMP180;52585;47.566;19.056;2022-08-03T10:18:31;100578.60;;;27.20
65823;BMP180;52585;47.566;19.056;2022-08-03T10:21:07;100579.80;;;27.22
65823;BMP180;52585;47.566;19.056;2022-08-03T10:23:37;100573.20;;;27.30
65823;BMP180;52585;47.566;19.056;2022-08-03T10:26:06;100572.00;;;27.30
65823;BMP180;52585;47.566;19.056;2022-08-03T10:28:36;100568.40;;;27.30
65823;BMP180;52585;47.566;19.056;2022-08-03T10:31:05;100568.40;;;27.40
65823;BMP180;52585;47.566;19.056;2022-08-03T10:33:38;100568.60;;;27.50
65823;BMP180;52585;47.566;19.056;2022-08-03T10:36:07;100565.60;;;27.50
65823;BMP180;52585;47.566;19.056;2022-08-03T10:38:42;100563.40;;;27.58
65823;BMP180;52585;47.566;19.056;2022-08-03T10:41:12;100557.60;;;27.60
65823;BMP180;52585;47.566;19.056;2022-08-03T10:44:07;100556.20;;;27.64
65823;BMP180;52585;47.566;19.056;2022-08-03T10:46:35;100556.40;;;27.70
65823;BMP180;52585;47.566;19.056;2022-08-03T10:49:04;100555.00;;;27.72
65823;BMP180;52585;47.566;19.056;2022-08-03T10:51:31;100550.80;;;27.80
65823;BMP180;52585;47.566;19.056;2022-08-03T10:53:58;100547.60;;;27.90
65823;BMP180;52585;47.566;19.056;2022-08-03T10:56:38;100542.80;;;27.98
65823;BMP180;52585;47.566;19.056;2022-08-03T11:02:10;100544.40;;;28.10
65823;BMP180;52585;47.566;19.056;2022-08-03T11:04:36;100536.40;;;28.10
65823;BMP180;52585;47.566;19.056;2022-08-03T11:07:23;100531.60;;;28.12
65823;BMP180;52585;47.566;19.056;2022-08-03T11:09:54;100534.00;;;28.20
65823;BMP180;52585;47.566;19.056;2022-08-03T11:12:31;100534.40;;;28.20
65823;BMP180;52585;47.566;19.056;2022-08-03T11:15:03;100530.20;;;28.20
65823;BMP180;52585;47.566;19.056;2022-08-03T11:17:29;100522.20;;;28.20
65823;BMP180;52585;47.566;19.056;2022-08-03T11:19:56;100520.20;;;28.30
65823;BMP180;52585;47.566;19.056;2022-08-03T11:22:22;100524.60;;;28.30
65823;BMP180;52585;47.566;19.056;2022-08-03T11:27:30;100518.20;;;28.40
65823;BMP180;52585;47.566;19.056;2022-08-03T11:38:00;100510.60;;;28.40
65823;BMP180;52585;47.566;19.056;2022-08-03T11:46:09;100505.00;;;28.40
65823;BMP180;52585;47.566;19.056;2022-08-03T11:48:44;100497.60;;;28.40
65823;BMP180;52585;47.566;19.056;2022-08-03T11:51:27;100497.80;;;28.40
65823;BMP180;52585;47.566;19.056;2022-08-03T11:53:54;100497.40;;;28.46
65823;BMP180;52585;47.566;19.056;2022-08-03T11:56:20;100498.40;;;28.50
65823;BMP180;52585;47.566;19.056;2022-08-03T11:58:51;100494.80;;;28.50
65823;BMP180;52585;47.566;19.056;2022-08-03T12:01:20;100496.40;;;28.58
65823;BMP180;52585;47.566;19.056;2022-08-03T12:03:47;100493.20;;;28.60
65823;BMP180;52585;47.566;19.056;2022-08-03T12:06:15;100489.80;;;28.60
65823;BMP180;52585;47.566;19.056;2022-08-03T12:08:43;100491.40;;;28.60
65823;BMP180;52585;47.566;19.056;2022-08-03T12:11:14;100485.40;;;28.58
65823;BMP180;52585;47.566;19.056;2022-08-03T12:16:11;100484.40;;;28.50
65823;BMP180;52585;47.566;19.056;2022-08-03T12:18:43;100484.80;;;28.40
65823;BMP180;52585;47.566;19.056;2022-08-03T12:21:10;100481.40;;;28.40
65823;BMP180;52585;47.566;19.056;2022-08-03T12:23:38;100487.80;;;28.40
65823;BMP180;52585;47.566;19.056;2022-08-03T12:26:07;100479.60;;;28.40
65823;BMP180;52585;47.566;19.056;2022-08-03T12:28:33;100475.60;;;28.44
65823;BMP180;52585;47.566;19.056;2022-08-03T12:31:06;100474.60;;;28.50
65823;BMP180;52585;47.566;19.056;2022-08-03T12:36:23;100470.80;;;28.50
65823;BMP180;52585;47.566;19.056;2022-08-03T12:39:06;100473.00;;;28.50
65823;BMP180;52585;47.566;19.056;2022-08-03T12:41:35;100467.80;;;28.50
65823;BMP180;52585;47.566;19.056;2022-08-03T12:44:06;100463.20;;;28.50
65823;BMP180;52585;47.566;19.056;2022-08-03T12:46:37;100457.40;;;28.50
65823;BMP180;52585;47.566;19.056;2022-08-03T12:49:08;100457.40;;;28.44
65823;BMP180;52585;47.566;19.056;2022-08-03T12:51:55;100459.20;;;28.42
65823;BMP180;52585;47.566;19.056;2022-08-03T12:54:26;100458.40;;;28.50
65823;BMP180;52585;47.566;19.056;2022-08-03T12:57:11;100458.60;;;28.50
65823;BMP180;52585;47.566;19.056;2022-08-03T12:59:43;100457.40;;;28.50
65823;BMP180;52585;47.566;19.056;2022-08-03T13:04:46;100452.00;;;28.50
65823;BMP180;52585;47.566;19.056;2022-08-03T13:07:14;100449.60;;;28.42
65823;BMP180;52585;47.566;19.056;2022-08-03T13:09:53;100448.60;;;28.40
65823;BMP180;52585;47.566;19.056;2022-08-03T13:12:27;100447.20;;;28.30
65823;BMP180;52585;47.566;19.056;2022-08-03T13:14:57;100441.40;;;28.24
65823;BMP180;52585;47.566;19.056;2022-08-03T13:17:24;100435.00;;;28.20
65823;BMP180;52585;47.566;19.056;2022-08-03T13:19:50;100437.80;;;28.10
65823;BMP180;52585;47.566;19.056;2022-08-03T13:24:48;100429.60;;;28.00
65823;BMP180;52585;47.566;19.056;2022-08-03T13:27:15;100429.60;;;28.00
65823;BMP180;52585;47.566;19.056;2022-08-03T13:29:42;100428.20;;;27.96
65823;BMP180;52585;47.566;19.056;2022-08-03T13:32:09;100425.00;;;27.90
65823;BMP180;52585;47.566;19.056;2022-08-03T13:34:36;100423.60;;;27.90
65823;BMP180;52585;47.566;19.056;2022-08-03T13:37:02;100423.40;;;27.88
65823;BMP180;52585;47.566;19.056;2022-08-03T13:39:28;100419.40;;;27.80
65823;BMP180;52585;47.566;19.056;2022-08-03T13:41:54;100415.80;;;27.80
65823;BMP180;52585;47.566;19.056;2022-08-03T13:44:20;100414.00;;;27.72
65823;BMP180;52585;47.566;19.056;2022-08-03T13:46:46;100413.40;;;27.70
65823;BMP180;52585;47.566;19.056;2022-08-03T13:49:12;100411.20;;;27.70
65823;BMP180;52585;47.566;19.056;2022-08-03T13:51:38;100407.40;;;27.70
65823;BMP180;52585;47.566;19.056;2022-08-03T13:54:04;100409.40;;;27.60
65823;BMP180;52585;47.566;19.056;2022-08-03T13:56:30;100402.00;;;27.60
65823;BMP180;52585;47.566;19.056;2022-08-03T13:58:56;100404.20;;;27.60
65823;BMP180;52585;47.566;19.056;2022-08-03T14:01:23;100400.40;;;27.60
65823;BMP180;52585;47.566;19.056;2022-08-03T14:03:49;100398.60;;;27.60
65823;BMP180;52585;47.566;19.056;2022-08-03T14:06:22;100398.40;;;27.60
65823;BMP180;52585;47.566;19.056;2022-08-03T14:08:49;100391.00;;;27.52
65823;BMP180;52585;47.566;19.056;2022-08-03T14:11:17;100392.80;;;27.50
65823;BMP180;52585;47.566;19.056;2022-08-03T14:13:43;100390.00;;;27.50
65823;BMP180;52585;47.566;19.056;2022-08-03T14:16:10;100387.80;;;27.50
65823;BMP180;52585;47.566;19.056;2022-08-03T14:18:36;100384.00;;;27.50
65823;BMP180;52585;47.566;19.056;2022-08-03T14:21:04;100383.60;;;27.50
65823;BMP180;52585;47.566;19.056;2022-08-03T14:23:30;100382.00;;;27.50
65823;BMP180;52585;47.566;19.056;2022-08-03T14:25:56;100381.40;;;27.50
65823;BMP180;52585;47.566;19.056;2022-08-03T14:28:23;100379.40;;;27.46
65823;BMP180;52585;47.566;19.056;2022-08-03T14:30:50;100375.00;;;27.40
65823;BMP180;52585;47.566;19.056;2022-08-03T14:33:16;100376.80;;;27.40
65823;BMP180;52585;47.566;19.056;2022-08-03T14:35:42;100376.20;;;27.40
65823;BMP180;52585;47.566;19.056;2022-08-03T14:38:07;100373.20;;;27.40
65823;BMP180;52585;47.566;19.056;2022-08-03T14:40:33;100373.40;;;27.40
65823;BMP180;52585;47.566;19.056;2022-08-03T14:42:58;100374.80;;;27.40
65823;BMP180;52585;47.566;19.056;2022-08-03T14:45:24;100370.40;;;27.40
65823;BMP180;52585;47.566;19.056;2022-08-03T14:47:49;100368.00;;;27.40
65823;BMP180;52585;47.566;19.056;2022-08-03T14:50:16;100371.20;;;27.40
65823;BMP180;52585;47.566;19.056;2022-08-03T14:52:42;100366.40;;;27.40
65823;BMP180;52585;47.566;19.056;2022-08-03T14:55:08;100359.80;;;27.40
65823;BMP180;52585;47.566;19.056;2022-08-03T14:57:34;100360.60;;;27.40
65823;BMP180;52585;47.566;19.056;2022-08-03T14:59:59;100358.80;;;27.40
65823;BMP180;52585;47.566;19.056;2022-08-03T15:02:25;100359.00;;;27.40
65823;BMP180;52585;47.566;19.056;2022-08-03T15:04:52;100362.40;;;27.40
65823;BMP180;52585;47.566;19.056;2022-08-03T15:07:17;100361.20;;;27.40